sensor_id;sensor_type;location;lat;lon;timestamp;temperature;humidity
36594;DHT22;22603;47.900;8.146;2023-03-01T00:02:41;-2.20;99.90
36594;DHT22;22603;47.900;8.146;2023-03-01T00:05:28;-2.00;99.90
36594;DHT22;22603;47.900;8.146;2023-03-01T00:08:17;-2.30;99.90
36594;DHT22;22603;47.900;8.146;2023-03-01T00:11:07;-2.20;99.90
36594;DHT22;22603;47.900;8.146;2023-03-01T00:13:56;-2.20;99.90
36594;DHT22;22603;47.900;8.146;2023-03-01T00:16:44;-2.20;99.90
36594;DHT22;22603;47.900;8.146;2023-03-01T00:19:34;-1.80;99.90
36594;DHT22;22603;47.900;8.146;2023-03-01T00:22:24;-2.20;99.90
36594;DHT22;22603;47.900;8.146;2023-03-01T00:25:11;-2.20;99.90
36594;DHT22;22603;47.900;8.146;2023-03-01T00:27:58;-2.20;99.90
36594;DHT22;22603;47.900;8.146;2023-03-01T00:30:45;-1.70;99.90
36594;DHT22;22603;47.900;8.146;2023-03-01T00:33:33;-2.00;99.90
36594;DHT22;22603;47.900;8.146;2023-03-01T00:36:21;-2.20;99.90
36594;DHT22;22603;47.900;8.146;2023-03-01T00:39:11;-2.20;99.90
36594;DHT22;22603;47.900;8.146;2023-03-01T00:41:59;-2.20;99.90
36594;DHT22;22603;47.900;8.146;2023-03-01T00:44:46;-2.20;99.90
36594;DHT22;22603;47.900;8.146;2023-03-01T00:47:33;-2.20;99.90
36594;DHT22;22603;47.900;8.146;2023-03-01T00:50:20;-2.20;99.90
36594;DHT22;22603;47.900;8.146;2023-03-01T00:53:08;-2.10;99.90
36594;DHT22;22603;47.900;8.146;2023-03-01T00:55:57;-2.20;99.90
36594;DHT22;22603;47.900;8.146;2023-03-01T00:58:44;-2.30;99.90
36594;DHT22;22603;47.900;8.146;2023-03-01T01:01:31;-2.30;99.90
36594;DHT22;22603;47.900;8.146;2023-03-01T01:04:18;-2.10;99.90
36594;DHT22;22603;47.900;8.146;2023-03-01T01:07:05;-2.20;99.90
36594;DHT22;22603;47.900;8.146;2023-03-01T01:09:54;-2.30;99.90
36594;DHT22;22603;47.900;8.146;2023-03-01T01:12:41;-2.30;99.90
36594;DHT22;22603;47.900;8.146;2023-03-01T01:15:27;-2.30;99.90
36594;DHT22;22603;47.900;8.146;2023-03-01T01:18:14;-2.30;99.90
36594;DHT22;22603;47.900;8.146;2023-03-01T01:21:06;-2.20;99.90
36594;DHT22;22603;47.900;8.146;2023-03-01T01:23:53;-2.30;99.90
36594;DHT22;22603;47.900;8.146;2023-03-01T01:26:43;-2.00;99.90
36594;DHT22;22603;47.900;8.146;2023-03-01T01:29:30;-2.10;99.90
36594;DHT22;22603;47.900;8.146;2023-03-01T01:32:17;-2.30;99.90
36594;DHT22;22603;47.900;8.146;2023-03-01T01:35:04;-2.30;99.90
36594;DHT22;22603;47.900;8.146;2023-03-01T01:37:51;-2.30;99.90
36594;DHT22;22603;47.900;8.146;2023-03-01T01:40:43;-2.30;99.90
36594;DHT22;22603;47.900;8.146;2023-03-01T01:43:37;-2.30;99.90
36594;DHT22;22603;47.900;8.146;2023-03-01T01:46:28;-2.30;99.90
36594;DHT22;22603;47.900;8.146;2023-03-01T01:49:27;-2.30;99.90
36594;DHT22;22603;47.900;8.146;2023-03-01T01:52:18;-2.20;99.90
36594;DHT22;22603;47.900;8.146;2023-03-01T01:55:08;-2.30;99.90
36594;DHT22;22603;47.900;8.146;2023-03-01T01:57:59;-2.30;99.90
36594;DHT22;22603;47.900;8.146;2023-03-01T02:00:50;-2.30;99.90
36594;DHT22;22603;47.900;8.146;2023-03-01T02:03:39;-2.30;99.90
36594;DHT22;22603;47.900;8.146;2023-03-01T02:06:31;-1.40;99.90
36594;DHT22;22603;47.900;8.146;2023-03-01T02:09:20;-2.30;99.90
36594;DHT22;22603;47.900;8.146;2023-03-01T02:12:08;-2.40;99.90
36594;DHT22;22603;47.900;8.146;2023-03-01T02:14:55;-2.40;99.90
36594;DHT22;22603;47.900;8.146;2023-03-01T02:17:44;-2.40;99.90
36594;DHT22;22603;47.900;8.146;2023-03-01T02:20:35;-2.30;99.90
36594;DHT22;22603;47.900;8.146;2023-03-01T02:23:24;-2.30;99.90
36594;DHT22;22603;47.900;8.146;2023-03-01T02:26:18;-2.20;99.90
36594;DHT22;22603;47.900;8.146;2023-03-01T02:29:07;-2.30;99.90
36594;DHT22;22603;47.900;8.146;2023-03-01T02:31:57;-2.30;99.90
36594;DHT22;22603;47.900;8.146;2023-03-01T02:34:45;-2.30;99.90
36594;DHT22;22603;47.900;8.146;2023-03-01T02:37:34;-2.30;99.90
36594;DHT22;22603;47.900;8.146;2023-03-01T02:40:22;-2.40;99.90
36594;DHT22;22603;47.900;8.146;2023-03-01T02:43:10;-2.40;99.90
36594;DHT22;22603;47.900;8.146;2023-03-01T02:46:07;-2.40;99.90
36594;DHT22;22603;47.900;8.146;2023-03-01T02:48:56;-2.40;99.90
36594;DHT22;22603;47.900;8.146;2023-03-01T02:51:51;-2.40;99.90
36594;DHT22;22603;47.900;8.146;2023-03-01T02:54:42;-2.40;99.90
36594;DHT22;22603;47.900;8.146;2023-03-01T02:57:33;-2.40;99.90
36594;DHT22;22603;47.900;8.146;2023-03-01T03:00:23;-2.40;99.90
36594;DHT22;22603;47.900;8.146;2023-03-01T03:03:13;-2.40;99.90
36594;DHT22;22603;47.900;8.146;2023-03-01T03:06:00;-2.40;99.90
36594;DHT22;22603;47.900;8.146;2023-03-01T03:08:47;-2.30;99.90
36594;DHT22;22603;47.900;8.146;2023-03-01T03:11:34;-2.40;99.90
36594;DHT22;22603;47.900;8.146;2023-03-01T03:14:22;-2.40;99.90
36594;DHT22;22603;47.900;8.146;2023-03-01T03:17:11;-2.40;99.90
36594;DHT22;22603;47.900;8.146;2023-03-01T03:20:00;-2.40;99.90
36594;DHT22;22603;47.900;8.146;2023-03-01T03:22:51;-2.40;99.90
36594;DHT22;22603;47.900;8.146;2023-03-01T03:25:39;-2.40;99.90
36594;DHT22;22603;47.900;8.146;2023-03-01T03:28:28;-2.40;99.90
36594;DHT22;22603;47.900;8.146;2023-03-01T03:31:16;-2.40;99.90
36594;DHT22;22603;47.900;8.146;2023-03-01T03:34:03;-2.40;99.90
36594;DHT22;22603;47.900;8.146;2023-03-01T03:36:54;-2.40;99.90
36594;DHT22;22603;47.900;8.146;2023-03-01T03:39:45;-2.10;99.90
36594;DHT22;22603;47.900;8.146;2023-03-01T03:42:32;-2.40;99.90
36594;DHT22;22603;47.900;8.146;2023-03-01T03:45:19;-2.50;99.90
36594;DHT22;22603;47.900;8.146;2023-03-01T03:48:08;-2.40;99.90
36594;DHT22;22603;47.900;8.146;2023-03-01T03:50:56;-2.50;99.90
36594;DHT22;22603;47.900;8.146;2023-03-01T03:53:45;-1.80;99.90
36594;DHT22;22603;47.900;8.146;2023-03-01T03:56:32;-2.40;99.90
36594;DHT22;22603;47.900;8.146;2023-03-01T03:59:19;-2.40;99.90
36594;DHT22;22603;47.900;8.146;2023-03-01T04:02:06;-2.40;99.90
36594;DHT22;22603;47.900;8.146;2023-03-01T04:04:54;-2.20;99.90
36594;DHT22;22603;47.900;8.146;2023-03-01T04:07:42;-2.40;99.90
36594;DHT22;22603;47.900;8.146;2023-03-01T04:10:33;-2.00;99.90
36594;DHT22;22603;47.900;8.146;2023-03-01T04:13:22;-2.30;99.90
36594;DHT22;22603;47.900;8.146;2023-03-01T04:16:11;-2.30;99.90
36594;DHT22;22603;47.900;8.146;2023-03-01T04:18:58;-2.20;99.90
36594;DHT22;22603;47.900;8.146;2023-03-01T04:21:45;-2.20;99.90
36594;DHT22;22603;47.900;8.146;2023-03-01T04:24:33;-2.30;99.90
36594;DHT22;22603;47.900;8.146;2023-03-01T04:27:24;-2.20;99.90
36594;DHT22;22603;47.900;8.146;2023-03-01T04:30:12;-2.10;99.90
36594;DHT22;22603;47.900;8.146;2023-03-01T04:32:59;-2.20;99.90
36594;DHT22;22603;47.900;8.146;2023-03-01T04:35:46;-2.20;99.90
36594;DHT22;22603;47.900;8.146;2023-03-01T04:38:35;-2.20;99.90
36594;DHT22;22603;47.900;8.146;2023-03-01T04:41:24;-2.10;99.90
36594;DHT22;22603;47.900;8.146;2023-03-01T04:44:12;-1.80;99.90
36594;DHT22;22603;47.900;8.146;2023-03-01T04:47:01;-2.20;99.90
36594;DHT22;22603;47.900;8.146;2023-03-01T04:49:48;-2.30;99.90
36594;DHT22;22603;47.900;8.146;2023-03-01T04:52:35;-2.20;99.90
36594;DHT22;22603;47.900;8.146;2023-03-01T04:55:22;-2.20;99.90
36594;DHT22;22603;47.900;8.146;2023-03-01T04:58:11;-2.10;99.90
36594;DHT22;22603;47.900;8.146;2023-03-01T05:01:00;-2.20;99.90
36594;DHT22;22603;47.900;8.146;2023-03-01T05:03:49;-2.20;99.90
36594;DHT22;22603;47.900;8.146;2023-03-01T05:06:36;-2.20;99.90
36594;DHT22;22603;47.900;8.146;2023-03-01T05:09:22;-1.90;99.90
36594;DHT22;22603;47.900;8.146;2023-03-01T05:12:09;-2.10;99.90
36594;DHT22;22603;47.900;8.146;2023-03-01T05:14:57;-2.20;99.90
36594;DHT22;22603;47.900;8.146;2023-03-01T05:17:45;-2.10;99.90
36594;DHT22;22603;47.900;8.146;2023-03-01T05:20:32;-2.10;99.90
36594;DHT22;22603;47.900;8.146;2023-03-01T05:23:22;-2.10;99.90
36594;DHT22;22603;47.900;8.146;2023-03-01T05:26:09;-2.20;99.90
36594;DHT22;22603;47.900;8.146;2023-03-01T05:29:12;-2.10;99.90
36594;DHT22;22603;47.900;8.146;2023-03-01T05:32:00;-2.20;99.90
36594;DHT22;22603;47.900;8.146;2023-03-01T05:34:49;-1.60;99.90
36594;DHT22;22603;47.900;8.146;2023-03-01T05:37:37;-2.30;99.90
36594;DHT22;22603;47.900;8.146;2023-03-01T05:40:24;-2.00;99.90
36594;DHT22;22603;47.900;8.146;2023-03-01T05:43:13;-2.30;99.90
36594;DHT22;22603;47.900;8.146;2023-03-01T05:46:00;-2.30;99.90
36594;DHT22;22603;47.900;8.146;2023-03-01T05:48:48;-2.30;99.90
36594;DHT22;22603;47.900;8.146;2023-03-01T05:51:36;-2.30;99.90
36594;DHT22;22603;47.900;8.146;2023-03-01T05:54:24;-1.50;99.90
36594;DHT22;22603;47.900;8.146;2023-03-01T05:57:11;-2.10;99.90
36594;DHT22;22603;47.900;8.146;2023-03-01T05:59:57;-2.20;99.90
36594;DHT22;22603;47.900;8.146;2023-03-01T06:02:45;-2.30;99.90
36594;DHT22;22603;47.900;8.146;2023-03-01T06:05:32;-2.30;99.90
36594;DHT22;22603;47.900;8.146;2023-03-01T06:08:20;-2.20;99.90
36594;DHT22;22603;47.900;8.146;2023-03-01T06:11:07;-2.30;99.90
36594;DHT22;22603;47.900;8.146;2023-03-01T06:13:54;-2.30;99.90
36594;DHT22;22603;47.900;8.146;2023-03-01T06:16:42;-2.40;99.90
36594;DHT22;22603;47.900;8.146;2023-03-01T06:19:29;-2.40;99.90
36594;DHT22;22603;47.900;8.146;2023-03-01T06:22:16;-2.40;99.90
36594;DHT22;22603;47.900;8.146;2023-03-01T06:25:05;-2.40;99.90
36594;DHT22;22603;47.900;8.146;2023-03-01T06:27:53;-2.30;99.90
36594;DHT22;22603;47.900;8.146;2023-03-01T06:30:40;-2.30;99.90
36594;DHT22;22603;47.900;8.146;2023-03-01T06:33:26;-2.30;99.90
36594;DHT22;22603;47.900;8.146;2023-03-01T06:36:14;-2.30;99.90
36594;DHT22;22603;47.900;8.146;2023-03-01T06:39:04;-2.30;99.90
36594;DHT22;22603;47.900;8.146;2023-03-01T06:41:52;-2.40;99.90
36594;DHT22;22603;47.900;8.146;2023-03-01T06:44:39;-2.30;99.90
36594;DHT22;22603;47.900;8.146;2023-03-01T06:47:26;-2.30;99.90
36594;DHT22;22603;47.900;8.146;2023-03-01T06:50:13;-2.00;99.90
36594;DHT22;22603;47.900;8.146;2023-03-01T06:53:01;-2.30;99.90
36594;DHT22;22603;47.900;8.146;2023-03-01T06:55:54;-2.30;99.90
36594;DHT22;22603;47.900;8.146;2023-03-01T06:58:42;-2.30;99.90
36594;DHT22;22603;47.900;8.146;2023-03-01T07:01:29;-2.40;99.90
36594;DHT22;22603;47.900;8.146;2023-03-01T07:04:16;-2.30;99.90
36594;DHT22;22603;47.900;8.146;2023-03-01T07:07:03;-2.20;99.90
36594;DHT22;22603;47.900;8.146;2023-03-01T07:09:50;-2.30;99.90
36594;DHT22;22603;47.900;8.146;2023-03-01T07:12:38;-2.30;99.90
36594;DHT22;22603;47.900;8.146;2023-03-01T07:15:28;-2.30;99.90
36594;DHT22;22603;47.900;8.146;2023-03-01T07:18:15;-2.00;99.90
36594;DHT22;22603;47.900;8.146;2023-03-01T07:21:04;-2.20;99.90
36594;DHT22;22603;47.900;8.146;2023-03-01T07:23:52;-2.20;99.90
36594;DHT22;22603;47.900;8.146;2023-03-01T07:26:39;-2.00;99.90
36594;DHT22;22603;47.900;8.146;2023-03-01T07:29:26;-2.00;99.90
36594;DHT22;22603;47.900;8.146;2023-03-01T07:32:15;-2.10;99.90
36594;DHT22;22603;47.900;8.146;2023-03-01T07:35:02;-2.00;99.90
36594;DHT22;22603;47.900;8.146;2023-03-01T07:37:49;-2.00;99.90
36594;DHT22;22603;47.900;8.146;2023-03-01T07:40:36;-2.20;99.90
36594;DHT22;22603;47.900;8.146;2023-03-01T07:43:23;-2.20;99.90
36594;DHT22;22603;47.900;8.146;2023-03-01T07:46:10;-2.20;99.90
36594;DHT22;22603;47.900;8.146;2023-03-01T07:48:59;-2.10;99.90
36594;DHT22;22603;47.900;8.146;2023-03-01T07:51:47;-2.10;99.90
36594;DHT22;22603;47.900;8.146;2023-03-01T07:54:34;-1.60;99.90
36594;DHT22;22603;47.900;8.146;2023-03-01T07:57:21;-2.00;99.90
36594;DHT22;22603;47.900;8.146;2023-03-01T08:00:11;-1.90;99.90
36594;DHT22;22603;47.900;8.146;2023-03-01T08:02:59;-2.00;99.90
36594;DHT22;22603;47.900;8.146;2023-03-01T08:05:48;-1.90;99.90
36594;DHT22;22603;47.900;8.146;2023-03-01T08:08:38;-1.70;99.90
36594;DHT22;22603;47.900;8.146;2023-03-01T08:11:24;-1.80;99.90
36594;DHT22;22603;47.900;8.146;2023-03-01T08:14:14;-1.80;99.90
36594;DHT22;22603;47.900;8.146;2023-03-01T08:17:01;-1.80;99.90
36594;DHT22;22603;47.900;8.146;2023-03-01T08:19:49;-1.60;99.90
36594;DHT22;22603;47.900;8.146;2023-03-01T08:22:37;-1.80;99.90
36594;DHT22;22603;47.900;8.146;2023-03-01T08:25:24;-1.70;99.90
36594;DHT22;22603;47.900;8.146;2023-03-01T08:28:11;-1.80;99.90
36594;DHT22;22603;47.900;8.146;2023-03-01T08:30:58;-1.80;99.90
36594;DHT22;22603;47.900;8.146;2023-03-01T08:33:46;-1.70;99.90
36594;DHT22;22603;47.900;8.146;2023-03-01T08:36:39;-1.70;99.90
36594;DHT22;22603;47.900;8.146;2023-03-01T08:39:27;-1.70;99.90
36594;DHT22;22603;47.900;8.146;2023-03-01T08:42:14;-1.50;99.90
36594;DHT22;22603;47.900;8.146;2023-03-01T08:45:01;-1.60;99.90
36594;DHT22;22603;47.900;8.146;2023-03-01T08:47:52;-1.60;99.90
36594;DHT22;22603;47.900;8.146;2023-03-01T08:50:39;-1.70;99.90
36594;DHT22;22603;47.900;8.146;2023-03-01T08:53:27;-1.60;99.90
36594;DHT22;22603;47.900;8.146;2023-03-01T08:56:18;-1.50;99.90
36594;DHT22;22603;47.900;8.146;2023-03-01T08:59:05;-1.30;99.90
36594;DHT22;22603;47.900;8.146;2023-03-01T09:01:52;-1.30;99.90
36594;DHT22;22603;47.900;8.146;2023-03-01T09:04:40;-1.40;99.90
36594;DHT22;22603;47.900;8.146;2023-03-01T09:07:26;-1.30;99.90
36594;DHT22;22603;47.900;8.146;2023-03-01T09:10:15;-1.30;99.90
36594;DHT22;22603;47.900;8.146;2023-03-01T09:13:03;-1.10;99.90
36594;DHT22;22603;47.900;8.146;2023-03-01T09:15:50;-1.20;99.90
36594;DHT22;22603;47.900;8.146;2023-03-01T09:18:37;-1.00;99.90
36594;DHT22;22603;47.900;8.146;2023-03-01T09:21:24;-1.00;99.90
36594;DHT22;22603;47.900;8.146;2023-03-01T09:24:25;-0.80;99.90
36594;DHT22;22603;47.900;8.146;2023-03-01T09:27:12;-0.70;99.90
36594;DHT22;22603;47.900;8.146;2023-03-01T09:30:01;-0.70;99.90
36594;DHT22;22603;47.900;8.146;2023-03-01T09:32:48;-0.80;99.90
36594;DHT22;22603;47.900;8.146;2023-03-01T09:35:35;-0.70;99.90
36594;DHT22;22603;47.900;8.146;2023-03-01T09:38:22;-0.80;99.90
36594;DHT22;22603;47.900;8.146;2023-03-01T09:41:22;-0.80;99.90
36594;DHT22;22603;47.900;8.146;2023-03-01T09:44:29;-0.80;99.90
36594;DHT22;22603;47.900;8.146;2023-03-01T09:47:20;-0.90;99.90
36594;DHT22;22603;47.900;8.146;2023-03-01T09:50:12;-0.90;99.90
36594;DHT22;22603;47.900;8.146;2023-03-01T09:53:02;-0.80;99.90
36594;DHT22;22603;47.900;8.146;2023-03-01T09:55:54;-0.80;99.90
36594;DHT22;22603;47.900;8.146;2023-03-01T09:58:48;-0.90;99.90
36594;DHT22;22603;47.900;8.146;2023-03-01T10:01:43;-0.90;99.90
36594;DHT22;22603;47.900;8.146;2023-03-01T10:04:41;-0.80;99.90
36594;DHT22;22603;47.900;8.146;2023-03-01T10:07:35;-0.60;99.90
36594;DHT22;22603;47.900;8.146;2023-03-01T10:10:28;-0.40;99.90
36594;DHT22;22603;47.900;8.146;2023-03-01T10:13:26;-0.60;99.90
36594;DHT22;22603;47.900;8.146;2023-03-01T10:16:17;-0.70;99.90
36594;DHT22;22603;47.900;8.146;2023-03-01T10:19:12;-0.50;99.90
36594;DHT22;22603;47.900;8.146;2023-03-01T10:22:04;-0.40;99.90
36594;DHT22;22603;47.900;8.146;2023-03-01T10:24:56;-0.30;99.90
36594;DHT22;22603;47.900;8.146;2023-03-01T10:27:49;-0.40;99.90
36594;DHT22;22603;47.900;8.146;2023-03-01T10:30:39;-0.50;99.90
36594;DHT22;22603;47.900;8.146;2023-03-01T10:33:32;-0.40;99.90
36594;DHT22;22603;47.900;8.146;2023-03-01T10:36:22;-0.30;99.90
36594;DHT22;22603;47.900;8.146;2023-03-01T10:39:16;-0.30;99.90
36594;DHT22;22603;47.900;8.146;2023-03-01T10:42:09;-0.30;99.90
36594;DHT22;22603;47.900;8.146;2023-03-01T10:45:17;0.00;99.90
36594;DHT22;22603;47.900;8.146;2023-03-01T10:48:14;0.00;99.90
36594;DHT22;22603;47.900;8.146;2023-03-01T10:51:06;-0.10;99.90
36594;DHT22;22603;47.900;8.146;2023-03-01T10:53:54;-0.20;99.90
36594;DHT22;22603;47.900;8.146;2023-03-01T10:56:51;0.10;99.90
36594;DHT22;22603;47.900;8.146;2023-03-01T10:59:39;0.20;99.90
36594;DHT22;22603;47.900;8.146;2023-03-01T11:02:28;0.20;99.90
36594;DHT22;22603;47.900;8.146;2023-03-01T11:05:23;0.40;99.90
36594;DHT22;22603;47.900;8.146;2023-03-01T11:08:11;0.20;99.90
36594;DHT22;22603;47.900;8.146;2023-03-01T11:11:06;0.30;99.90
36594;DHT22;22603;47.900;8.146;2023-03-01T11:13:57;0.40;99.90
36594;DHT22;22603;47.900;8.146;2023-03-01T11:16:47;0.60;99.90
36594;DHT22;22603;47.900;8.146;2023-03-01T11:19:34;0.40;99.90
36594;DHT22;22603;47.900;8.146;2023-03-01T11:22:22;0.40;99.90
36594;DHT22;22603;47.900;8.146;2023-03-01T11:25:13;0.50;99.90
36594;DHT22;22603;47.900;8.146;2023-03-01T11:28:05;0.50;99.90
36594;DHT22;22603;47.900;8.146;2023-03-01T11:30:57;0.60;99.90
36594;DHT22;22603;47.900;8.146;2023-03-01T11:33:59;0.70;99.90
36594;DHT22;22603;47.900;8.146;2023-03-01T11:36:53;0.90;99.90
36594;DHT22;22603;47.900;8.146;2023-03-01T11:39:46;0.80;99.90
36594;DHT22;22603;47.900;8.146;2023-03-01T11:42:43;1.00;99.90
36594;DHT22;22603;47.900;8.146;2023-03-01T11:45:43;1.10;99.90
36594;DHT22;22603;47.900;8.146;2023-03-01T11:48:47;1.30;99.90
36594;DHT22;22603;47.900;8.146;2023-03-01T11:51:43;1.70;99.90
36594;DHT22;22603;47.900;8.146;2023-03-01T11:54:45;1.50;99.90
36594;DHT22;22603;47.900;8.146;2023-03-01T11:57:53;1.40;99.90
36594;DHT22;22603;47.900;8.146;2023-03-01T12:00:59;1.10;99.90
36594;DHT22;22603;47.900;8.146;2023-03-01T12:04:28;1.20;99.90
36594;DHT22;22603;47.900;8.146;2023-03-01T12:07:20;1.20;99.90
36594;DHT22;22603;47.900;8.146;2023-03-01T12:10:23;1.10;99.90
36594;DHT22;22603;47.900;8.146;2023-03-01T12:13:24;1.20;99.90
36594;DHT22;22603;47.900;8.146;2023-03-01T12:16:23;1.30;99.90
36594;DHT22;22603;47.900;8.146;2023-03-01T12:19:37;1.20;99.90
36594;DHT22;22603;47.900;8.146;2023-03-01T12:22:30;1.00;99.90
36594;DHT22;22603;47.900;8.146;2023-03-01T12:25:25;1.20;99.90
36594;DHT22;22603;47.900;8.146;2023-03-01T12:28:36;1.30;99.90
36594;DHT22;22603;47.900;8.146;2023-03-01T12:35:12;1.50;99.90
36594;DHT22;22603;47.900;8.146;2023-03-01T12:38:13;1.60;99.90
36594;DHT22;22603;47.900;8.146;2023-03-01T12:41:20;1.60;99.90
36594;DHT22;22603;47.900;8.146;2023-03-01T12:44:20;1.40;99.90
36594;DHT22;22603;47.900;8.146;2023-03-01T12:47:19;1.80;99.90
36594;DHT22;22603;47.900;8.146;2023-03-01T12:50:17;1.70;99.90
36594;DHT22;22603;47.900;8.146;2023-03-01T12:53:20;1.70;99.90
36594;DHT22;22603;47.900;8.146;2023-03-01T12:56:11;1.80;99.90
36594;DHT22;22603;47.900;8.146;2023-03-01T12:59:05;2.00;99.90
36594;DHT22;22603;47.900;8.146;2023-03-01T13:02:04;1.90;99.90
36594;DHT22;22603;47.900;8.146;2023-03-01T13:05:06;1.90;99.90
36594;DHT22;22603;47.900;8.146;2023-03-01T13:08:04;2.00;99.90
36594;DHT22;22603;47.900;8.146;2023-03-01T13:10:56;2.00;99.90
36594;DHT22;22603;47.900;8.146;2023-03-01T13:13:45;2.30;99.90
36594;DHT22;22603;47.900;8.146;2023-03-01T13:16:41;2.00;99.90
36594;DHT22;22603;47.900;8.146;2023-03-01T13:19:30;1.90;99.90
36594;DHT22;22603;47.900;8.146;2023-03-01T13:22:30;1.80;99.90
36594;DHT22;22603;47.900;8.146;2023-03-01T13:25:22;2.00;99.90
36594;DHT22;22603;47.900;8.146;2023-03-01T13:28:39;2.20;99.90
36594;DHT22;22603;47.900;8.146;2023-03-01T13:31:57;2.10;99.90
36594;DHT22;22603;47.900;8.146;2023-03-01T13:34:52;2.10;99.90
36594;DHT22;22603;47.900;8.146;2023-03-01T13:37:39;2.00;99.90
36594;DHT22;22603;47.900;8.146;2023-03-01T13:40:59;2.10;99.90
36594;DHT22;22603;47.900;8.146;2023-03-01T13:43:46;2.20;99.90
36594;DHT22;22603;47.900;8.146;2023-03-01T13:46:37;2.20;99.90
36594;DHT22;22603;47.900;8.146;2023-03-01T13:49:29;2.60;99.90
36594;DHT22;22603;47.900;8.146;2023-03-01T13:52:43;2.50;99.90
36594;DHT22;22603;47.900;8.146;2023-03-01T13:55:37;2.50;99.90
36594;DHT22;22603;47.900;8.146;2023-03-01T13:58:30;2.50;99.90
36594;DHT22;22603;47.900;8.146;2023-03-01T14:01:24;2.60;99.90
36594;DHT22;22603;47.900;8.146;2023-03-01T14:04:21;2.50;99.90
36594;DHT22;22603;47.900;8.146;2023-03-01T14:07:12;2.40;99.90
36594;DHT22;22603;47.900;8.146;2023-03-01T14:10:02;2.40;99.90
36594;DHT22;22603;47.900;8.146;2023-03-01T14:12:53;2.40;99.90
36594;DHT22;22603;47.900;8.146;2023-03-01T14:16:06;2.40;99.90
36594;DHT22;22603;47.900;8.146;2023-03-01T14:19:06;2.40;99.90
36594;DHT22;22603;47.900;8.146;2023-03-01T14:22:05;2.50;99.90
36594;DHT22;22603;47.900;8.146;2023-03-01T14:24:59;2.60;99.90
36594;DHT22;22603;47.900;8.146;2023-03-01T14:27:51;2.60;99.90
36594;DHT22;22603;47.900;8.146;2023-03-01T14:30:42;2.40;99.90
36594;DHT22;22603;47.900;8.146;2023-03-01T14:33:33;2.50;99.90
36594;DHT22;22603;47.900;8.146;2023-03-01T14:36:27;2.40;99.90
36594;DHT22;22603;47.900;8.146;2023-03-01T14:39:20;2.40;99.90
36594;DHT22;22603;47.900;8.146;2023-03-01T14:42:12;2.50;99.90
36594;DHT22;22603;47.900;8.146;2023-03-01T14:45:01;2.70;99.90
36594;DHT22;22603;47.900;8.146;2023-03-01T14:47:48;2.80;99.90
36594;DHT22;22603;47.900;8.146;2023-03-01T14:50:41;2.90;99.90
36594;DHT22;22603;47.900;8.146;2023-03-01T14:53:30;2.70;99.90
36594;DHT22;22603;47.900;8.146;2023-03-01T14:56:43;2.80;99.90
36594;DHT22;22603;47.900;8.146;2023-03-01T14:59:33;3.00;99.90
36594;DHT22;22603;47.900;8.146;2023-03-01T15:02:23;2.80;99.90
36594;DHT22;22603;47.900;8.146;2023-03-01T15:05:13;3.00;99.90
36594;DHT22;22603;47.900;8.146;2023-03-01T15:08:03;2.80;99.90
36594;DHT22;22603;47.900;8.146;2023-03-01T15:10:59;2.80;99.90
36594;DHT22;22603;47.900;8.146;2023-03-01T15:13:53;2.80;99.90
36594;DHT22;22603;47.900;8.146;2023-03-01T15:16:41;3.00;99.90
36594;DHT22;22603;47.900;8.146;2023-03-01T15:19:29;3.00;99.90
36594;DHT22;22603;47.900;8.146;2023-03-01T15:22:17;2.90;99.90
36594;DHT22;22603;47.900;8.146;2023-03-01T15:25:14;3.00;99.90
36594;DHT22;22603;47.900;8.146;2023-03-01T15:28:02;3.00;99.90
36594;DHT22;22603;47.900;8.146;2023-03-01T15:30:54;3.00;99.90
36594;DHT22;22603;47.900;8.146;2023-03-01T15:33:44;3.00;99.90
36594;DHT22;22603;47.900;8.146;2023-03-01T15:36:38;2.90;99.90
36594;DHT22;22603;47.900;8.146;2023-03-01T15:39:34;2.80;99.90
36594;DHT22;22603;47.900;8.146;2023-03-01T15:42:37;2.70;99.90
36594;DHT22;22603;47.900;8.146;2023-03-01T15:45:27;2.70;99.90
36594;DHT22;22603;47.900;8.146;2023-03-01T15:48:18;2.70;99.90
36594;DHT22;22603;47.900;8.146;2023-03-01T15:51:12;2.80;99.90
36594;DHT22;22603;47.900;8.146;2023-03-01T15:54:03;2.70;99.90
36594;DHT22;22603;47.900;8.146;2023-03-01T15:56:51;2.70;99.90
36594;DHT22;22603;47.900;8.146;2023-03-01T15:59:39;2.70;99.90
36594;DHT22;22603;47.900;8.146;2023-03-01T16:02:26;2.60;99.90
36594;DHT22;22603;47.900;8.146;2023-03-01T16:05:18;2.60;99.90
36594;DHT22;22603;47.900;8.146;2023-03-01T16:08:08;2.70;99.90
36594;DHT22;22603;47.900;8.146;2023-03-01T16:10:56;2.70;99.90
36594;DHT22;22603;47.900;8.146;2023-03-01T16:13:43;2.60;99.90
36594;DHT22;22603;47.900;8.146;2023-03-01T16:16:32;2.50;99.90
36594;DHT22;22603;47.900;8.146;2023-03-01T16:19:20;2.40;99.90
36594;DHT22;22603;47.900;8.146;2023-03-01T16:22:09;2.20;99.90
36594;DHT22;22603;47.900;8.146;2023-03-01T16:24:57;2.10;99.90
36594;DHT22;22603;47.900;8.146;2023-03-01T16:27:44;1.90;99.90
36594;DHT22;22603;47.900;8.146;2023-03-01T16:30:32;1.80;99.90
36594;DHT22;22603;47.900;8.146;2023-03-01T16:33:23;1.60;99.90
36594;DHT22;22603;47.900;8.146;2023-03-01T16:36:20;1.50;99.90
36594;DHT22;22603;47.900;8.146;2023-03-01T16:39:09;1.40;99.90
36594;DHT22;22603;47.900;8.146;2023-03-01T16:41:56;1.40;99.90
36594;DHT22;22603;47.900;8.146;2023-03-01T16:44:43;1.10;99.90
36594;DHT22;22603;47.900;8.146;2023-03-01T16:47:30;1.00;99.90
36594;DHT22;22603;47.900;8.146;2023-03-01T16:50:18;0.90;99.90
36594;DHT22;22603;47.900;8.146;2023-03-01T16:53:05;0.80;99.90
36594;DHT22;22603;47.900;8.146;2023-03-01T16:55:56;0.70;99.90
36594;DHT22;22603;47.900;8.146;2023-03-01T16:58:44;0.60;99.90
36594;DHT22;22603;47.900;8.146;2023-03-01T17:01:31;0.50;99.90
36594;DHT22;22603;47.900;8.146;2023-03-01T17:04:23;0.50;99.90
36594;DHT22;22603;47.900;8.146;2023-03-01T17:07:12;0.30;99.90
36594;DHT22;22603;47.900;8.146;2023-03-01T17:09:59;0.40;99.90
36594;DHT22;22603;47.900;8.146;2023-03-01T17:12:48;0.30;99.90
36594;DHT22;22603;47.900;8.146;2023-03-01T17:15:38;0.30;99.90
36594;DHT22;22603;47.900;8.146;2023-03-01T17:18:28;0.40;99.90
36594;DHT22;22603;47.900;8.146;2023-03-01T17:21:15;0.30;99.90
36594;DHT22;22603;47.900;8.146;2023-03-01T17:24:04;0.30;99.90
36594;DHT22;22603;47.900;8.146;2023-03-01T17:26:51;0.30;99.90
36594;DHT22;22603;47.900;8.146;2023-03-01T17:29:38;0.30;99.90
36594;DHT22;22603;47.900;8.146;2023-03-01T17:32:26;0.30;99.90
36594;DHT22;22603;47.900;8.146;2023-03-01T17:35:13;0.30;99.90
36594;DHT22;22603;47.900;8.146;2023-03-01T17:38:00;0.30;99.90
36594;DHT22;22603;47.900;8.146;2023-03-01T17:40:48;0.30;99.90
36594;DHT22;22603;47.900;8.146;2023-03-01T17:43:35;0.30;99.90
36594;DHT22;22603;47.900;8.146;2023-03-01T17:46:22;0.40;99.90
36594;DHT22;22603;47.900;8.146;2023-03-01T17:49:11;0.30;99.90
36594;DHT22;22603;47.900;8.146;2023-03-01T17:51:58;0.30;99.90
36594;DHT22;22603;47.900;8.146;2023-03-01T17:54:45;0.40;99.90
36594;DHT22;22603;47.900;8.146;2023-03-01T17:57:34;0.30;99.90
36594;DHT22;22603;47.900;8.146;2023-03-01T18:00:24;0.40;99.90
36594;DHT22;22603;47.900;8.146;2023-03-01T18:03:11;0.50;99.90
36594;DHT22;22603;47.900;8.146;2023-03-01T18:05:58;0.60;99.90
36594;DHT22;22603;47.900;8.146;2023-03-01T18:08:45;0.50;99.90
36594;DHT22;22603;47.900;8.146;2023-03-01T18:11:34;0.60;99.90